createdAt,value
2023-05-11T00:04:00.022Z,3.40
2023-05-11T00:09:33.140Z,3.50
2023-05-11T00:15:58.889Z,3.50
2023-05-11T00:21:46.969Z,3.70
2023-05-11T00:28:14.684Z,3.50
2023-05-11T00:58:05.915Z,4.50
2023-05-11T01:04:25.901Z,5.00
2023-05-11T01:11:02.964Z,4.60
2023-05-11T01:17:49.309Z,4.70
2023-05-11T01:32:00.388Z,4.80
2023-05-11T01:38:46.034Z,4.90
2023-05-11T02:03:38.912Z,5.80
2023-05-11T02:10:25.880Z,6.20
2023-05-11T02:30:13.241Z,5.40
2023-05-11T02:37:01.673Z,5.30
2023-05-11T02:57:07.632Z,5.40
2023-05-11T03:03:46.302Z,4.70
2023-05-11T03:24:21.176Z,5.60
2023-05-11T03:30:47.860Z,5.30
2023-05-11T03:55:14.853Z,5.00
2023-05-11T04:01:47.845Z,4.20
2023-05-11T04:07:51.350Z,4.40
2023-05-11T04:14:17.798Z,5.50
2023-05-11T04:19:59.566Z,5.80
2023-05-11T04:32:01.803Z,5.50
2023-05-11T04:37:40.162Z,6.40
2023-05-11T04:44:05.684Z,5.40
2023-05-11T05:28:43.210Z,5.80
2023-05-11T05:35:14.318Z,5.30
2023-05-11T05:41:03.151Z,3.80
2023-05-11T06:06:20.527Z,5.30
2023-05-11T06:26:04.202Z,4.80
2023-05-11T06:44:52.867Z,4.60
2023-05-11T06:51:30.190Z,4.10
2023-05-11T07:02:47.977Z,2.60
2023-05-11T07:08:19.185Z,2.40
2023-05-11T07:14:17.471Z,2.20
2023-05-11T07:20:19.945Z,1.90
2023-05-11T07:26:16.149Z,2.20
2023-05-11T07:32:07.013Z,1.90
2023-05-11T07:37:38.683Z,1.70
2023-05-11T07:43:29.230Z,1.60
2023-05-11T07:49:03.351Z,2.00
2023-05-11T07:55:09.687Z,1.70
2023-05-11T08:01:10.111Z,2.00
2023-05-11T08:07:32.805Z,1.50
2023-05-11T08:13:07.246Z,1.60
2023-05-11T08:18:43.513Z,1.50
2023-05-11T08:24:56.887Z,1.70
2023-05-11T08:30:55.462Z,1.80
2023-05-11T08:36:34.101Z,1.50
2023-05-11T08:42:26.884Z,1.50
2023-05-11T08:48:04.443Z,1.50
2023-05-11T08:54:31.932Z,1.70
2023-05-11T08:59:57.166Z,1.60
2023-05-11T09:06:14.007Z,1.20
2023-05-11T09:11:59.547Z,1.90
2023-05-11T09:17:48.426Z,1.10
2023-05-11T09:24:04.638Z,1.20
2023-05-11T09:29:40.100Z,1.40
2023-05-11T09:35:29.119Z,1.00
2023-05-11T09:41:23.973Z,1.30
2023-05-11T09:48:13.384Z,1.60
2023-05-11T09:54:29.061Z,1.30
2023-05-11T10:32:13.383Z,0.90
2023-05-11T10:44:54.589Z,0.90
2023-05-11T10:51:49.693Z,1.40
2023-05-11T10:57:23.789Z,1.40
2023-05-11T11:03:20.421Z,1.80
2023-05-11T11:27:13.197Z,1.90
2023-05-11T11:33:40.836Z,1.30
2023-05-11T11:39:27.185Z,1.50
2023-05-11T11:46:04.713Z,1.20
2023-05-11T11:51:44.957Z,1.00
2023-05-11T11:58:11.734Z,1.10
2023-05-11T12:04:33.793Z,1.70
2023-05-11T12:10:11.637Z,0.90
2023-05-11T12:16:34.354Z,1.30
2023-05-11T12:22:09.275Z,0.90
2023-05-11T12:28:13.387Z,1.50
2023-05-11T12:34:31.374Z,0.80
2023-05-11T12:40:49.470Z,1.20
2023-05-11T12:46:50.448Z,1.50
2023-05-11T12:52:28.933Z,1.20
2023-05-11T12:58:52.294Z,1.00
2023-05-11T13:05:23.344Z,1.20
2023-05-11T13:17:17.787Z,1.10
2023-05-11T13:23:32.695Z,1.40
2023-05-11T13:29:49.964Z,1.80
2023-05-11T13:50:04.393Z,1.40
2023-05-11T14:03:02.418Z,1.20
2023-05-11T14:28:37.737Z,1.50
2023-05-11T14:41:41.999Z,1.40
2023-05-11T15:00:59.440Z,1.80
2023-05-11T15:07:45.889Z,1.70
2023-05-11T15:27:17.682Z,2.40
2023-05-11T15:40:19.291Z,1.70
2023-05-11T15:46:22.869Z,2.00
2023-05-11T15:53:09.050Z,1.90
2023-05-11T16:24:41.313Z,4.30
2023-05-11T16:30:22.299Z,4.40
2023-05-11T16:36:09.502Z,2.80
2023-05-11T16:42:14.191Z,2.00
2023-05-11T16:47:38.989Z,2.40
2023-05-11T16:53:07.426Z,2.00
2023-05-11T16:58:54.054Z,1.80
2023-05-11T17:04:39.817Z,3.40
2023-05-11T17:10:13.444Z,2.30
2023-05-11T17:15:42.426Z,1.50
2023-05-11T17:21:12.737Z,3.40
2023-05-11T17:32:23.546Z,2.80
2023-05-11T17:38:21.461Z,2.40
2023-05-11T17:43:54.894Z,4.50
2023-05-11T17:49:40.122Z,3.40
2023-05-11T17:55:08.977Z,2.80
2023-05-11T18:00:42.399Z,3.50
2023-05-11T18:06:20.018Z,3.90
2023-05-11T18:11:45.654Z,2.80
2023-05-11T18:17:20.743Z,2.50
2023-05-11T18:23:09.472Z,2.60
2023-05-11T18:28:37.847Z,2.40
2023-05-11T18:34:04.277Z,4.10
2023-05-11T18:40:42.386Z,3.80
2023-05-11T19:00:26.607Z,4.10
2023-05-11T19:06:36.306Z,3.30
2023-05-11T19:12:05.033Z,3.40
2023-05-11T19:18:02.707Z,3.30
2023-05-11T19:23:48.908Z,3.60
2023-05-11T19:46:15.099Z,3.90
2023-05-11T19:51:40.523Z,3.40
2023-05-11T19:57:05.812Z,3.60
2023-05-11T20:02:43.658Z,3.80
2023-05-11T20:08:31.381Z,4.50
2023-05-11T20:14:18.535Z,4.00
2023-05-11T20:20:36.263Z,3.80
2023-05-11T20:26:12.920Z,4.20
2023-05-11T20:31:40.501Z,5.20
2023-05-11T20:37:22.493Z,5.10
2023-05-11T20:42:56.989Z,6.30
2023-05-11T20:48:40.382Z,6.00
2023-05-11T20:54:07.846Z,5.70
2023-05-11T21:05:04.360Z,6.40
2023-05-11T21:10:29.281Z,6.80
2023-05-11T21:15:57.200Z,7.00
2023-05-11T21:21:22.448Z,8.70
2023-05-11T21:26:49.893Z,7.70
2023-05-11T21:32:41.117Z,8.50
2023-05-11T21:38:26.131Z,9.30
2023-05-11T21:43:53.362Z,10.20
2023-05-11T21:49:23.758Z,9.90
2023-05-11T21:54:48.832Z,9.40
2023-05-11T22:00:18.929Z,10.20
2023-05-11T22:05:43.757Z,9.10
2023-05-11T22:11:08.413Z,8.00
2023-05-11T22:16:36.303Z,8.10
2023-05-11T22:22:04.839Z,7.20
2023-05-11T22:27:30.402Z,6.90
2023-05-11T22:32:55.842Z,6.80
2023-05-11T22:38:20.637Z,5.50
2023-05-11T22:43:45.257Z,6.00
2023-05-11T22:49:10.028Z,6.20
2023-05-11T22:54:44.015Z,5.60
2023-05-11T23:00:13.002Z,5.70
2023-05-11T23:05:38.611Z,5.30
2023-05-11T23:11:03.625Z,4.80
2023-05-11T23:16:33.996Z,5.80
2023-05-11T23:21:58.696Z,5.40
2023-05-11T23:27:23.887Z,4.30
2023-05-11T23:32:52.153Z,6.00
2023-05-11T23:38:21.277Z,5.00
2023-05-11T23:43:46.380Z,6.00
2023-05-11T23:49:11.150Z,5.40
2023-05-11T23:54:35.838Z,4.70
